This is the latest recevied weather packets stored in our database for station/object ED1ZAI-13. If no packets are shown the sender has not sent any weather packets the latest 1 day(s).
| Time | Temp. | Humidity | Pressure | Rain* | Wind** | Luminosity | Snow |
|---|---|---|---|---|---|---|---|
| 1778107885 | 7.78° C | 78% | 1011.5 hPa | 0 mm | - | - | - |
| 1778097684 | 10° C | 68% | 1010.8 hPa | 0 mm | - | - | - |
| 1778095284 | 10.56° C | 66% | 1010.4 hPa | 0 mm | - | - | - |
| 1778093485 | 11.67° C | 59% | 1010 hPa | 0 mm | - | - | - |
| 1778091084 | 12.78° C | 57% | 1009.6 hPa | 0 mm | - | - | - |
| 1778090484 | 13.33° C | 51% | 1009.5 hPa | 0 mm | - | - | - |
| 1778088685 | 15.56° C | 44% | 1009.4 hPa | 0 mm | - | - | - |
| 1778087484 | 18.89° C | 39% | 1009.4 hPa | 0 mm | - | - | - |
| 1778086884 | 15.56° C | 44% | 1009.6 hPa | 0 mm | - | - | - |
| 1778084485 | 15.56° C | 44% | 1009.5 hPa | 0 mm | - | - | - |
| 1778082684 | 17.22° C | 38% | 1009.5 hPa | 0 mm | - | - | - |
| 1778080285 | 16.11° C | 35% | 1009.6 hPa | 0 mm | - | - | - |
| 1778079084 | 16.11° C | 36% | 1009.7 hPa | 0 mm | - | - | - |
| 1778078484 | 15° C | 36% | 1009.8 hPa | 0 mm | - | - | - |
| 1778076685 | 15.56° C | 34% | 1010.2 hPa | 0 mm | - | - | - |
| 1778076085 | 17.22° C | 29% | 1010.2 hPa | 0 mm | - | - | - |
| 1778074284 | 19.44° C | 28% | 1010.3 hPa | 0 mm | - | - | - |
| 1778070084 | 15° C | 36% | 1010.8 hPa | 0 mm | - | - | - |
| 1778069486 | 14.44° C | 35% | 1010.9 hPa | 0 mm | - | - | - |
| 1778067685 | 14.44° C | 38% | 1011.1 hPa | 0 mm | - | - | - |
| 1778065884 | 13.89° C | 40% | 1011.2 hPa | 0 mm | - | - | - |
| 1778064085 | 14.44° C | 39% | 1011.4 hPa | 0 mm | - | - | - |
| 1778063485 | 12.22° C | 44% | 1011.5 hPa | 0 mm | - | - | - |
| 1778062284 | 13.33° C | 43% | 1011.6 hPa | 0 mm | - | - | - |
| 1778061686 | 12.22° C | 48% | 1011.7 hPa | 0 mm | - | - | - |
* Rain latest hour (hover to see other rain measurements)
** Current wind speed in m/s (hover to see current wind gust speed)